Time;durP1;ratioP1;P1;durP2;ratioP2;P2;SDS_P1;SDS_P2;PMS_P1;PMS_P2;Temp;Humidity;BMP_temperature;BMP_pressure;BME280_temperature;BME280_humidity;BME280_pressure;Samples;Min_cycle;Max_cycle;Signal;HPM_P1;HPM_P2
2022/08/13 00:01:14;;;;;;;14.18;11.32;;;;;;;18.46;66.00;96193.16;5034845;28;20046;-62
2022/08/13 00:03:42;;;;;;;11.90;10.68;;;;;;;18.42;65.80;96192.53;5034798;28;20454;-68
2022/08/13 00:06:11;;;;;;;15.60;11.35;;;;;;;18.40;66.20;96191.81;5034462;28;20128;-69
2022/08/13 00:08:39;;;;;;;15.45;11.85;;;;;;;18.31;66.37;96185.41;5034600;28;20053;-69
2022/08/13 00:11:09;;;;;;;13.90;11.52;;;;;;;18.26;66.75;96182.25;5034568;28;20049;-67
2022/08/13 00:13:37;;;;;;;18.00;12.38;;;;;;;18.19;68.00;96183.69;5034766;28;20046;-67
2022/08/13 00:16:04;;;;;;;17.00;12.48;;;;;;;18.22;67.50;96177.31;5034780;28;20045;-66
2022/08/13 00:18:32;;;;;;;18.10;11.95;;;;;;;18.23;67.36;96174.56;5034278;28;20108;-69
2022/08/13 00:21:00;;;;;;;14.75;11.45;;;;;;;18.21;67.36;96178.28;5034484;28;20084;-70
2022/08/13 00:23:29;;;;;;;14.98;11.57;;;;;;;18.12;67.55;96174.53;5034233;28;20052;-68
2022/08/13 00:25:58;;;;;;;13.77;11.90;;;;;;;18.10;67.83;96171.09;5034510;28;20072;-70
2022/08/13 00:28:29;;;;;;;14.60;12.23;;;;;;;18.08;67.31;96176.50;5034120;28;20123;-69
2022/08/13 00:30:59;;;;;;;;;;;;;;;18.13;67.65;96176.19;5034616;28;20095;-65
2022/08/13 00:33:27;;;;;;;13.80;11.97;;;;;;;18.11;67.92;96178.97;5034170;28;19928;-67
2022/08/13 00:35:54;;;;;;;21.17;12.43;;;;;;;18.15;67.90;96169.81;5033459;28;20341;-68
2022/08/13 00:38:23;;;;;;;14.93;11.38;;;;;;;18.08;68.20;96162.41;5034146;28;20510;-65
2022/08/13 00:40:54;;;;;;;16.30;12.88;;;;;;;18.02;68.43;96174.31;5034104;28;20124;-68
2022/08/13 00:43:21;;;;;;;17.65;12.13;;;;;;;17.98;68.32;96168.41;5033828;28;20091;-69
2022/08/13 00:45:49;;;;;;;18.35;12.02;;;;;;;17.97;68.37;96171.19;5033854;28;20111;-66
2022/08/13 00:51:06;;;;;;;18.08;12.57;;;;;;;18.00;68.06;96174.44;5033785;28;20068;-64
2022/08/13 00:53:34;;;;;;;14.25;11.98;;;;;;;17.97;68.13;96173.81;5033736;28;20476;-68
2022/08/13 00:56:01;;;;;;;14.77;12.20;;;;;;;17.96;68.39;96169.47;5033961;28;20191;-64
2022/08/13 00:58:29;;;;;;;16.77;11.00;;;;;;;17.98;68.32;96176.34;5033847;28;20132;-70
2022/08/13 01:00:58;;;;;;;17.48;11.77;;;;;;;17.92;67.68;96171.53;5033649;28;20049;-69
2022/08/13 01:03:29;;;;;;;15.25;12.02;;;;;;;17.88;68.04;96173.53;5033548;28;20052;-65
2022/08/13 01:05:59;;;;;;;12.77;11.48;;;;;;;17.88;67.70;96180.66;5033192;28;20049;-70
2022/08/13 01:08:31;;;;;;;13.90;12.20;;;;;;;17.88;67.77;96167.41;5033481;28;20060;-64
2022/08/13 01:11:03;;;;;;;15.30;12.20;;;;;;;17.85;67.85;96165.81;5033478;28;20264;-68
2022/08/13 01:13:33;;;;;;;13.88;11.63;;;;;;;17.90;67.61;96168.97;5033399;28;20091;-65
2022/08/13 01:16:01;;;;;;;17.30;12.45;;;;;;;17.86;67.73;96175.47;5033502;28;20072;-67
2022/08/13 01:18:31;;;;;;;15.43;12.30;;;;;;;17.85;67.87;96170.28;5033381;28;20053;-68
2022/08/13 01:21:02;;;;;;;14.40;12.37;;;;;;;17.78;67.42;96165.44;5033436;28;20506;-63
2022/08/13 01:23:31;;;;;;;14.18;12.57;;;;;;;17.74;67.69;96169.28;5033219;28;20458;-70
2022/08/13 01:26:01;;;;;;;14.30;12.20;;;;;;;17.73;67.84;96170.22;5033334;28;20076;-69
2022/08/13 01:28:30;;;;;;;13.77;12.23;;;;;;;17.70;67.93;96166.97;5033383;28;20124;-66
2022/08/13 01:30:59;;;;;;;16.77;11.88;;;;;;;17.69;68.54;96163.47;5033257;28;20118;-71
2022/08/13 01:33:27;;;;;;;16.85;12.45;;;;;;;17.69;68.85;96158.16;5033169;28;20079;-68
2022/08/13 01:35:55;;;;;;;13.18;11.75;;;;;;;17.63;68.33;96155.97;5033115;28;20096;-66
2022/08/13 01:38:23;;;;;;;14.52;12.68;;;;;;;17.64;68.81;96155.03;5033081;28;20053;-71
2022/08/13 01:40:52;;;;;;;16.13;12.60;;;;;;;17.60;68.42;96154.41;5033049;28;20046;-68
2022/08/13 01:43:19;;;;;;;14.55;12.48;;;;;;;17.59;68.42;96149.22;5033027;28;20089;-69
2022/08/13 01:45:48;;;;;;;15.07;12.73;;;;;;;17.57;68.62;96156.44;5033322;28;20502;-65
2022/08/13 01:51:01;;;;;;;17.20;12.85;;;;;;;17.50;68.73;96143.66;5033250;28;20056;-68
2022/08/13 01:53:29;;;;;;;14.95;12.98;;;;;;;17.49;69.02;96146.41;5032787;28;20140;-70
2022/08/13 01:56:00;;;;;;;14.43;12.57;;;;;;;17.50;69.37;96146.31;5032883;28;20045;-69
2022/08/13 01:58:29;;;;;;;17.90;13.40;;;;;;;17.42;69.36;96144.22;5032793;28;20446;-67
2022/08/13 02:01:01;;;;;;;16.58;13.77;;;;;;;17.41;68.76;96139.03;5032976;28;20045;-68
2022/08/13 02:03:30;;;;;;;14.30;12.82;;;;;;;17.40;69.41;96138.19;5033194;28;20131;-65
2022/08/13 02:05:57;;;;;;;17.30;13.23;;;;;;;17.46;69.18;96146.63;5032665;28;20057;-67
2022/08/13 02:08:26;;;;;;;15.43;12.82;;;;;;;17.42;68.87;96136.28;5032807;28;20518;-68
2022/08/13 02:10:57;;;;;;;15.43;12.60;;;;;;;17.45;69.49;96139.66;5032641;28;20052;-67
2022/08/13 02:13:29;;;;;;;;;;;;;;;17.34;69.17;96133.31;5033433;28;20154;-64
2022/08/13 02:15:57;;;;;;;16.00;12.82;;;;;;;17.33;69.74;96126.34;5032783;28;19924;-66
2022/08/13 02:18:27;;;;;;;15.35;12.95;;;;;;;17.25;70.19;96131.38;5032711;28;20567;-63
2022/08/13 02:20:56;;;;;;;20.60;12.70;;;;;;;17.19;69.59;96130.00;5032747;28;20105;-67
2022/08/13 02:23:26;;;;;;;17.88;12.27;;;;;;;17.22;70.02;96139.50;5032949;28;20050;-68
2022/08/13 02:25:54;;;;;;;21.38;12.50;;;;;;;17.25;69.52;96134.00;5032619;28;20384;-62
2022/08/13 02:28:22;;;;;;;14.38;11.52;;;;;;;17.18;69.70;96134.44;5032582;28;20045;-64
2022/08/13 02:30:55;;;;;;;14.25;12.57;;;;;;;17.14;69.91;96132.13;5032691;28;20053;-66
2022/08/13 02:33:23;;;;;;;14.82;12.18;;;;;;;17.11;70.26;96129.69;5032518;28;20052;-66
2022/08/13 02:35:50;;;;;;;16.52;11.90;;;;;;;17.13;70.21;96133.91;5032648;28;20179;-67
2022/08/13 02:38:18;;;;;;;23.55;13.23;;;;;;;17.10;70.53;96133.31;5032681;28;20434;-63
2022/08/13 02:43:33;;;;;;;12.60;11.23;;;;;;;17.15;69.92;96131.16;5032522;28;20184;-65
2022/08/13 02:46:01;;;;;;;14.75;12.18;;;;;;;17.16;69.77;96130.22;5032476;28;20049;-68
2022/08/13 02:48:29;;;;;;;12.85;11.55;;;;;;;17.14;69.66;96126.84;5032395;28;20073;-62
2022/08/13 02:50:57;;;;;;;16.83;11.32;;;;;;;17.08;69.89;96133.41;5032436;28;20045;-68
2022/08/13 02:53:25;;;;;;;13.60;11.27;;;;;;;17.07;70.13;96131.72;5032333;28;20469;-68
2022/08/13 02:55:53;;;;;;;13.27;11.88;;;;;;;17.00;70.30;96133.06;5032652;28;20073;-67
2022/08/13 02:58:20;;;;;;;11.88;10.77;;;;;;;16.93;70.46;96140.59;5034168;28;20458;-64
2022/08/13 03:00:49;;;;;;;13.20;10.77;;;;;;;16.81;70.73;96134.38;5035868;28;20089;-67
2022/08/13 03:03:18;;;;;;;12.13;10.50;;;;;;;16.78;70.72;96138.06;5035800;28;20502;-62
2022/08/13 03:05:45;;;;;;;14.90;11.55;;;;;;;16.78;70.56;96139.88;5035580;28;20132;-67
2022/08/13 03:08:13;;;;;;;14.10;9.93;;;;;;;16.82;70.71;96137.88;5035768;28;20050;-62
2022/08/13 03:10:42;;;;;;;13.00;9.98;;;;;;;16.78;70.51;96142.50;5035713;28;20045;-65
2022/08/13 03:13:15;;;;;;;11.88;10.68;;;;;;;16.76;70.22;96142.59;5035525;28;20507;-64
2022/08/13 03:15:44;;;;;;;11.68;10.48;;;;;;;16.77;70.13;96140.81;5035572;28;20483;-65
2022/08/13 03:18:12;;;;;;;11.32;9.75;;;;;;;16.71;70.09;96147.38;5035672;28;20046;-67
2022/08/13 03:20:40;;;;;;;11.25;10.13;;;;;;;16.65;70.52;96145.97;5035509;28;20046;-67
2022/08/13 03:23:08;;;;;;;10.60;9.60;;;;;;;16.68;70.41;96145.78;5035823;28;20095;-65
2022/08/13 03:25:36;;;;;;;13.20;9.05;;;;;;;16.73;69.74;96144.59;5035475;28;20483;-65
2022/08/13 03:28:06;;;;;;;10.45;9.15;;;;;;;16.75;69.61;96148.00;5035434;28;20084;-65
2022/08/13 03:30:34;;;;;;;11.52;9.25;;;;;;;16.79;69.83;96142.41;5035394;28;20487;-65
2022/08/13 03:33:06;;;;;;;10.57;9.05;;;;;;;16.77;69.79;96144.28;5035242;28;20053;-64
2022/08/13 03:35:37;;;;;;;10.73;9.57;;;;;;;16.76;69.61;96147.88;5035242;28;20484;-66
2022/08/13 03:38:05;;;;;;;;;;;;;;;16.78;69.85;96156.56;5035591;28;20050;-68
2022/08/13 03:43:13;;;;;;;14.93;9.63;;;;;;;16.80;69.71;96153.81;5034237;28;20050;-67
2022/08/13 03:45:42;;;;;;;9.48;8.40;;;;;;;16.85;69.82;96151.69;5035087;28;20050;-67
2022/08/13 03:48:09;;;;;;;14.80;9.15;;;;;;;16.92;69.41;96160.03;5035001;28;20099;-67
2022/08/13 03:50:38;;;;;;;11.05;9.85;;;;;;;16.97;69.16;96149.97;5035060;28;20103;-67
2022/08/13 03:53:05;;;;;;;13.48;9.57;;;;;;;17.02;69.08;96149.66;5034960;28;20137;-66
2022/08/13 03:55:33;;;;;;;10.45;9.35;;;;;;;17.08;69.05;96157.19;5034959;28;20426;-62
2022/08/13 03:58:01;;;;;;;14.75;10.63;;;;;;;17.05;68.85;96150.31;5035116;28;20076;-68
2022/08/13 04:00:29;;;;;;;13.10;9.90;;;;;;;17.12;69.11;96157.81;5034970;28;20081;-66
2022/08/13 04:02:56;;;;;;;10.52;9.35;;;;;;;17.38;68.68;96158.59;5034768;28;20096;-65
2022/08/13 04:05:23;;;;;;;10.65;9.23;;;;;;;17.79;67.41;96153.88;5034785;28;20050;-65
2022/08/13 04:07:52;;;;;;;11.73;9.93;;;;;;;18.22;66.33;96154.34;5034627;28;20053;-66
2022/08/13 04:10:20;;;;;;;11.73;8.50;;;;;;;18.56;65.14;96159.72;5033524;28;20409;-62
2022/08/13 04:12:47;;;;;;;14.45;8.88;;;;;;;18.88;64.16;96160.84;5034489;28;20108;-65
2022/08/13 04:15:14;;;;;;;14.73;8.93;;;;;;;19.15;63.13;96159.66;5034856;28;20111;-64
2022/08/13 04:17:41;;;;;;;12.82;8.43;;;;;;;19.42;62.36;96155.75;5034648;28;20053;-65
2022/08/13 04:20:10;;;;;;;9.02;7.93;;;;;;;19.71;61.48;96154.38;5034494;28;20042;-64
2022/08/13 04:22:38;;;;;;;9.15;7.72;;;;;;;20.02;60.58;96154.53;5034413;28;20049;-67
2022/08/13 04:25:09;;;;;;;11.13;8.27;;;;;;;20.34;59.91;96152.84;5034396;28;20408;-69
2022/08/13 04:27:36;;;;;;;12.10;7.93;;;;;;;20.70;58.86;96163.97;5034193;28;20480;-65
2022/08/13 04:30:07;;;;;;;8.93;8.05;;;;;;;21.04;57.99;96162.09;5034379;28;20119;-68
2022/08/13 04:32:41;;;;;;;9.70;8.00;;;;;;;21.45;57.13;96168.25;5034337;28;20559;-67
2022/08/13 04:35:10;;;;;;;7.68;6.97;;;;;;;21.82;56.41;96160.63;5034152;28;20499;-68
2022/08/13 04:37:38;;;;;;;8.18;7.43;;;;;;;22.13;55.37;96157.00;5034065;28;20107;-65
2022/08/13 04:40:10;;;;;;;9.80;7.10;;;;;;;22.48;54.77;96155.56;5034059;28;20103;-69
2022/08/13 04:42:49;;;;;;;10.80;7.70;;;;;;;22.85;53.23;96151.34;5033991;28;20499;-63
2022/08/13 04:45:16;;;;;;;10.23;7.72;;;;;;;23.21;53.09;96151.47;5034002;28;20057;-66
2022/08/13 04:47:43;;;;;;;10.55;6.85;;;;;;;23.53;52.60;96148.50;5034004;28;20124;-63
2022/08/13 04:50:12;;;;;;;11.73;7.68;;;;;;;23.88;52.07;96151.38;5033991;28;20495;-67
2022/08/13 04:52:40;;;;;;;13.25;7.50;;;;;;;24.23;50.41;96147.91;5033686;28;20084;-69
2022/08/13 04:55:12;;;;;;;7.97;7.22;;;;;;;24.54;50.40;96141.31;5033838;28;20404;-64
2022/08/13 04:57:41;;;;;;;10.88;7.80;;;;;;;24.86;49.57;96147.00;5033648;28;20119;-66
2022/08/13 05:00:09;;;;;;;10.63;7.65;;;;;;;25.22;49.10;96140.69;5033820;28;20099;-64
2022/08/13 05:02:40;;;;;;;8.73;7.05;;;;;;;25.59;47.86;96141.34;5033715;28;20054;-66
2022/08/13 05:05:10;;;;;;;8.02;6.85;;;;;;;25.95;48.09;96138.44;5033683;28;20046;-64
2022/08/13 05:07:37;;;;;;;9.15;7.40;;;;;;;26.15;45.90;96139.97;5033556;28;20053;-65
2022/08/13 05:10:05;;;;;;;9.57;7.25;;;;;;;26.35;46.10;96141.34;5033601;28;20479;-66
2022/08/13 05:12:36;;;;;;;11.00;7.50;;;;;;;26.74;45.24;96134.44;5033749;28;20049;-66
2022/08/13 05:15:04;;;;;;;9.73;7.45;;;;;;;26.95;45.09;96133.06;5033594;28;20045;-66
2022/08/13 05:17:32;;;;;;;7.93;6.82;;;;;;;27.16;45.93;96134.34;5033455;28;20420;-66
2022/08/13 05:20:00;;;;;;;9.15;7.10;;;;;;;27.48;45.86;96129.03;5033244;28;20081;-63
2022/08/13 05:22:28;;;;;;;11.40;7.43;;;;;;;27.74;45.16;96133.25;5033168;28;20087;-64
2022/08/13 05:24:55;;;;;;;13.13;7.38;;;;;;;27.99;44.64;96133.13;5033289;28;20049;-64
2022/08/13 05:27:23;;;;;;;8.15;6.68;;;;;;;28.25;43.95;96131.91;5033168;28;20053;-65
2022/08/13 05:29:52;;;;;;;13.32;7.10;;;;;;;28.19;44.41;96135.31;5033330;28;20073;-62
2022/08/13 05:32:19;;;;;;;10.07;6.75;;;;;;;28.07;43.93;96130.38;5033434;28;20042;-66
2022/08/13 05:34:47;;;;;;;16.65;7.35;;;;;;;28.18;44.52;96128.28;5033185;28;20041;-66
2022/08/13 05:37:16;;;;;;;14.75;7.30;;;;;;;28.24;44.37;96131.06;5033220;28;20491;-64
2022/08/13 05:39:45;;;;;;;9.00;6.63;;;;;;;28.25;44.70;96124.69;5033112;28;20041;-64
2022/08/13 05:42:13;;;;;;;11.10;7.20;;;;;;;28.17;43.65;96132.81;5033111;28;20504;-66
2022/08/13 05:44:40;;;;;;;10.18;6.88;;;;;;;28.09;43.16;96122.97;5033112;28;20487;-64
2022/08/13 05:47:09;;;;;;;12.30;7.45;;;;;;;28.10;44.21;96126.47;5033223;28;20041;-62
2022/08/13 05:49:37;;;;;;;11.70;7.47;;;;;;;28.25;44.20;96129.22;5033102;28;20041;-66
2022/08/13 05:52:04;;;;;;;10.65;7.75;;;;;;;28.37;41.87;96129.66;5032956;28;20049;-67
2022/08/13 05:54:32;;;;;;;9.63;8.43;;;;;;;28.44;41.55;96129.78;5032995;28;20193;-67
2022/08/13 05:56:59;;;;;;;12.15;8.00;;;;;;;28.61;41.96;96122.38;5032913;28;20049;-68
2022/08/13 06:05:00;;;;;;;13.27;7.72;;;;;;;29.07;41.76;96123.31;5032883;28;20411;-66
2022/08/13 06:07:27;;;;;;;10.53;7.07;;;;;;;29.60;38.58;96115.09;5032613;28;20491;-68
2022/08/13 06:09:54;;;;;;;9.25;6.93;;;;;;;29.97;37.58;96120.44;5032973;28;20171;-69
2022/08/13 06:12:22;;;;;;;10.70;7.05;;;;;;;30.36;36.49;96129.13;5032855;28;20053;-68
2022/08/13 06:14:52;;;;;;;7.43;6.75;;;;;;;30.68;35.90;96120.66;5032609;28;20050;-68
2022/08/13 06:17:24;;;;;;;8.90;6.87;;;;;;;30.95;35.26;96120.88;5032685;28;20045;-67
2022/08/13 06:19:52;;;;;;;10.27;6.45;;;;;;;31.00;36.27;96118.41;5032707;28;20325;-65
2022/08/13 06:22:21;;;;;;;11.32;7.32;;;;;;;30.92;36.10;96112.31;5032731;28;20085;-69
2022/08/13 06:24:50;;;;;;;11.52;7.07;;;;;;;30.92;35.98;96112.31;5032550;28;20061;-64
2022/08/13 06:27:17;;;;;;;8.90;7.38;;;;;;;30.92;36.34;96113.19;5032646;28;20042;-67
2022/08/13 06:29:46;;;;;;;13.95;7.57;;;;;;;30.97;36.44;96116.09;5032565;28;20089;-67
2022/08/13 06:32:16;;;;;;;9.98;7.25;;;;;;;31.06;36.90;96114.06;5032777;28;20045;-65
2022/08/13 06:34:45;;;;;;;12.80;7.88;;;;;;;31.13;36.22;96109.56;5036440;28;20499;-67
2022/08/13 06:37:13;;;;;;;9.40;8.00;;;;;;;31.18;36.05;96111.63;5036355;28;20045;-69
2022/08/13 06:39:41;;;;;;;20.40;8.50;;;;;;;31.20;35.74;96112.28;5036397;28;20069;-68
2022/08/13 06:42:09;;;;;;;9.38;8.00;;;;;;;31.14;35.80;96105.81;5036341;28;20049;-70
2022/08/13 06:44:36;;;;;;;9.82;7.78;;;;;;;31.15;36.38;96107.47;5036352;28;20049;-67
2022/08/13 06:47:05;;;;;;;11.98;8.43;;;;;;;31.12;36.79;96105.19;5036562;28;20084;-69
2022/08/13 06:49:33;;;;;;;10.25;8.70;;;;;;;31.10;35.87;96096.47;5036047;28;20053;-66
2022/08/13 06:52:04;;;;;;;14.93;8.52;;;;;;;31.15;35.94;96103.94;5036140;28;20408;-66
2022/08/13 06:54:31;;;;;;;;;;;;;;;31.22;35.54;96101.28;5036388;28;20045;-68
2022/08/13 06:57:01;;;;;;;12.88;7.53;;;;;;;31.32;35.45;96106.28;5036151;28;19921;-65
2022/08/13 06:59:33;;;;;;;11.52;7.80;;;;;;;31.29;34.94;96102.13;5035880;28;20073;-66
2022/08/13 07:02:02;;;;;;;9.68;8.68;;;;;;;31.30;34.52;96097.59;5035997;28;20099;-63
2022/08/13 07:04:30;;;;;;;10.40;8.57;;;;;;;31.28;35.11;96100.47;5035924;28;20046;-65
2022/08/13 07:06:58;;;;;;;8.70;7.80;;;;;;;31.19;35.65;96097.13;5035650;28;20107;-66
2022/08/13 07:09:28;;;;;;;12.60;7.70;;;;;;;31.06;35.37;96099.75;5036009;28;20049;-70
2022/08/13 07:11:56;;;;;;;10.05;9.05;;;;;;;31.01;34.12;96094.94;5035973;28;20050;-68
2022/08/13 07:14:23;;;;;;;9.70;7.97;;;;;;;30.91;35.25;96089.91;5035623;28;20085;-67
2022/08/13 07:16:50;;;;;;;11.65;7.88;;;;;;;30.89;34.34;96091.97;5035754;28;20502;-64
2022/08/13 07:19:18;;;;;;;9.25;7.68;;;;;;;30.86;35.62;96092.38;5035626;28;20049;-69
2022/08/13 07:21:45;;;;;;;13.57;8.52;;;;;;;31.15;35.56;96093.13;5035612;28;20046;-67
2022/08/13 07:24:14;;;;;;;9.25;7.63;;;;;;;31.19;33.39;96089.03;5035549;28;20053;-67
2022/08/13 07:26:43;;;;;;;15.00;7.70;;;;;;;31.07;34.57;96093.31;5035570;28;20103;-65
2022/08/13 07:29:10;;;;;;;9.13;8.20;;;;;;;30.84;34.29;96081.78;5035380;28;20089;-68
2022/08/13 07:31:40;;;;;;;14.27;8.05;;;;;;;30.62;35.49;96081.81;5035487;28;20045;-69
2022/08/13 07:34:09;;;;;;;8.93;8.07;;;;;;;30.50;35.42;96080.69;5035452;28;20582;-65
2022/08/13 07:36:40;;;;;;;10.20;7.28;;;;;;;30.47;34.91;96075.69;5035198;28;20045;-69
2022/08/13 07:39:09;;;;;;;11.20;7.65;;;;;;;30.54;35.15;96076.56;5035268;28;20103;-67
2022/08/13 07:41:43;;;;;;;9.73;7.47;;;;;;;30.74;36.18;96073.16;5035186;28;20069;-65
2022/08/13 07:44:14;;;;;;;11.35;7.68;;;;;;;30.92;35.57;96071.84;5035184;28;20053;-68
2022/08/13 07:46:44;;;;;;;8.73;7.82;;;;;;;30.95;35.49;96077.69;5035017;28;20057;-68
2022/08/13 07:49:12;;;;;;;;;;;;;;;31.02;35.21;96075.84;5035468;28;20384;-69
2022/08/13 07:51:41;;;;;;;12.88;7.70;;;;;;;31.13;35.13;96066.38;5035066;28;20366;-68
2022/08/13 07:54:08;;;;;;;12.50;7.55;;;;;;;31.28;34.72;96073.47;5034850;28;20111;-68
2022/08/13 07:56:36;;;;;;;8.10;7.30;;;;;;;31.68;34.06;96075.50;5034779;28;20053;-66
2022/08/13 07:59:07;;;;;;;13.38;8.20;;;;;;;31.90;32.51;96069.91;5034899;28;20056;-64
2022/08/13 08:01:44;;;;;;;12.25;7.75;;;;;;;31.61;33.09;96064.69;5034864;28;20095;-67
2022/08/13 08:04:14;;;;;;;13.95;8.70;;;;;;;31.15;33.43;96063.44;5034680;28;20099;-66
2022/08/13 08:06:41;;;;;;;15.93;7.45;;;;;;;31.18;33.57;96060.34;5034545;28;20045;-62
2022/08/13 08:09:10;;;;;;;10.55;8.02;;;;;;;31.41;33.72;96056.50;5034816;28;20050;-63
2022/08/13 08:14:26;;;;;;;9.80;7.70;;;;;;;31.04;33.12;96055.91;5034632;28;20064;-64
2022/08/13 08:16:54;;;;;;;11.55;7.78;;;;;;;31.10;34.30;96055.13;5034484;28;20137;-67
2022/08/13 08:19:21;;;;;;;9.75;7.47;;;;;;;31.49;31.34;96050.09;5034625;28;20076;-66
2022/08/13 08:21:49;;;;;;;7.97;7.22;;;;;;;31.67;30.65;96048.69;5034797;28;20476;-67
2022/08/13 08:24:18;;;;;;;8.27;7.30;;;;;;;31.77;30.68;96055.34;5034475;28;20045;-63
2022/08/13 08:26:48;;;;;;;15.32;7.90;;;;;;;31.67;31.49;96049.53;5034333;28;20050;-65
2022/08/13 08:29:16;;;;;;;7.65;6.85;;;;;;;31.18;32.02;96043.31;5034228;28;20136;-67
2022/08/13 08:31:44;;;;;;;10.25;6.72;;;;;;;31.33;31.63;96045.88;5034238;28;20045;-63
2022/08/13 08:34:12;;;;;;;11.98;6.88;;;;;;;31.69;31.10;96031.22;5034258;28;20060;-67
2022/08/13 08:36:42;;;;;;;9.98;6.95;;;;;;;32.06;30.87;96033.59;5034095;28;20056;-67
2022/08/13 08:44:44;;;;;;;11.68;7.45;;;;;;;32.50;29.73;96033.16;5034103;28;20095;-66
2022/08/13 08:47:13;;;;;;;18.60;8.00;;;;;;;32.05;29.02;96026.50;5034049;28;20439;-68
2022/08/13 08:49:43;;;;;;;11.23;7.05;;;;;;;31.53;30.82;96029.72;5033842;28;20045;-64
2022/08/13 08:52:11;;;;;;;14.00;6.10;;;;;;;31.42;27.83;96023.06;5033907;28;20053;-67
2022/08/13 08:54:40;;;;;;;10.13;5.93;;;;;;;31.38;27.12;96016.41;5033812;28;20509;-65
2022/08/13 08:57:08;;;;;;;14.68;6.93;;;;;;;31.27;27.08;96012.38;5033319;28;20050;-64
2022/08/13 08:59:39;;;;;;;9.18;5.97;;;;;;;30.91;27.36;96010.81;5033825;28;20419;-63
2022/08/13 09:02:21;;;;;;;12.23;7.30;;;;;;;30.50;29.34;96016.78;5033699;28;20057;-65
2022/08/13 09:04:53;;;;;;;12.40;6.82;;;;;;;30.13;29.26;96008.00;5033379;28;20141;-68
2022/08/13 09:07:21;;;;;;;11.45;6.53;;;;;;;29.99;30.47;95999.81;5033358;28;20059;-66
2022/08/13 09:09:50;;;;;;;10.73;6.57;;;;;;;30.43;29.89;95990.81;5033482;28;20053;-64
2022/08/13 09:12:25;;;;;;;19.55;6.88;;;;;;;31.06;28.91;95986.38;5033464;28;20484;-65
2022/08/13 09:14:52;;;;;;;9.43;6.20;;;;;;;31.46;28.69;95986.50;5033405;28;20057;-64
2022/08/13 09:17:21;;;;;;;7.30;6.32;;;;;;;31.58;28.31;95994.84;5033372;28;20053;-66
2022/08/13 09:19:49;;;;;;;8.40;5.93;;;;;;;32.09;26.39;95981.81;5033339;28;20077;-63
2022/08/13 09:22:22;;;;;;;9.02;6.13;;;;;;;32.53;26.59;95981.31;5033391;28;20049;-65
2022/08/13 09:24:50;;;;;;;7.78;5.70;;;;;;;32.60;24.91;95978.63;5033261;28;20050;-66
2022/08/13 09:27:18;;;;;;;13.88;6.38;;;;;;;32.30;25.20;95973.66;5033208;28;20045;-64
2022/08/13 09:29:46;;;;;;;18.17;6.75;;;;;;;31.93;26.50;95972.22;5033172;28;20507;-66
2022/08/13 09:32:15;;;;;;;10.85;6.18;;;;;;;31.76;26.36;95977.19;5033252;28;20478;-68
2022/08/13 09:34:45;;;;;;;7.03;5.78;;;;;;;31.85;25.86;95969.72;5033095;28;20053;-64
2022/08/13 09:37:12;;;;;;;9.85;6.07;;;;;;;31.88;25.71;95969.28;5033178;28;20092;-67
2022/08/13 09:39:48;;;;;;;14.55;5.80;;;;;;;32.18;25.42;95968.91;5033412;28;20478;-67
2022/08/13 09:42:24;;;;;;;9.75;6.25;;;;;;;32.24;24.80;95968.03;5033087;28;20045;-66
2022/08/13 09:44:54;;;;;;;8.25;5.88;;;;;;;32.03;25.67;95964.53;5033071;28;20141;-62
2022/08/13 09:47:21;;;;;;;13.07;6.27;;;;;;;31.76;25.20;95958.28;5033036;28;20479;-67
2022/08/13 09:49:50;;;;;;;9.63;5.72;;;;;;;31.72;24.60;95960.53;5033142;28;20164;-66
2022/08/13 09:52:17;;;;;;;6.03;4.45;;;;;;;31.71;24.68;95952.66;5033201;28;20159;-64
2022/08/13 09:54:45;;;;;;;11.45;5.47;;;;;;;31.63;25.33;95956.38;5032877;28;20096;-67
2022/08/13 09:57:12;;;;;;;6.45;5.38;;;;;;;31.88;23.90;95955.78;5032915;28;20056;-65
2022/08/13 09:59:39;;;;;;;9.25;6.13;;;;;;;31.86;24.60;95944.34;5033038;28;20450;-64
2022/08/13 10:02:12;;;;;;;6.82;6.00;;;;;;;31.81;25.44;95953.06;5032908;28;20487;-68
2022/08/13 10:04:41;;;;;;;9.00;5.80;;;;;;;31.65;25.82;95951.59;5032925;28;20081;-67
2022/08/13 10:07:12;;;;;;;7.72;6.05;;;;;;;31.32;25.81;95947.81;5032690;28;20053;-65
2022/08/13 10:09:39;;;;;;;9.65;5.47;;;;;;;31.15;25.92;95950.03;5036893;28;20100;-63
2022/08/13 10:12:09;;;;;;;9.63;6.13;;;;;;;30.87;26.51;95941.03;5036810;28;20061;-66
2022/08/13 10:14:37;;;;;;;9.45;5.97;;;;;;;30.60;26.89;95948.13;5036641;28;20492;-62
2022/08/13 10:17:06;;;;;;;7.35;6.35;;;;;;;30.37;27.87;95951.97;5036746;28;20051;-66
2022/08/13 10:19:33;;;;;;;8.15;6.28;;;;;;;30.19;27.30;95944.41;5036929;28;20053;-65
2022/08/13 10:22:00;;;;;;;6.10;5.50;;;;;;;30.27;26.92;95936.16;5036572;28;20049;-65
2022/08/13 10:24:30;;;;;;;7.10;6.05;;;;;;;30.33;27.79;95938.06;5036644;28;20134;-67
2022/08/13 10:26:57;;;;;;;11.20;6.03;;;;;;;30.37;28.65;95930.41;5036568;28;20046;-66
2022/08/13 10:29:24;;;;;;;7.68;6.20;;;;;;;30.48;27.49;95942.47;5036493;28;20092;-65
2022/08/13 10:31:51;;;;;;;7.15;5.95;;;;;;;30.63;26.98;95928.84;5036857;28;20050;-67
2022/08/13 10:34:22;;;;;;;9.85;5.78;;;;;;;30.88;27.31;95923.81;5036516;28;20045;-69
2022/08/13 10:36:49;;;;;;;7.38;6.20;;;;;;;31.11;29.29;95921.78;5036368;28;20514;-67
2022/08/13 10:39:16;;;;;;;9.38;6.10;;;;;;;31.14;28.78;95926.78;5036357;28;20128;-65
2022/08/13 10:41:45;;;;;;;11.30;7.00;;;;;;;31.04;29.06;95926.34;5036231;28;20125;-63
2022/08/13 10:44:13;;;;;;;6.90;6.20;;;;;;;30.88;29.37;95921.09;5036143;28;20054;-63
2022/08/13 10:46:45;;;;;;;12.20;6.25;;;;;;;30.78;29.26;95926.03;5036533;28;20077;-66
2022/08/13 10:49:13;;;;;;;7.82;6.30;;;;;;;30.71;29.43;95920.59;5036313;28;20373;-65
2022/08/13 10:51:41;;;;;;;15.13;6.97;;;;;;;30.39;29.16;95917.53;5036039;28;20053;-64
2022/08/13 10:54:09;;;;;;;8.73;6.32;;;;;;;30.39;29.62;95915.69;5018600;28;20061;-67
2022/08/13 10:56:36;;;;;;;7.82;6.60;;;;;;;30.62;30.37;95917.25;5036116;28;20103;-64
2022/08/13 10:59:06;;;;;;;16.48;6.95;;;;;;;30.87;29.32;95910.50;5036346;28;20124;-67
2022/08/13 11:01:33;;;;;;;10.13;7.05;;;;;;;31.11;29.94;95905.59;5035992;28;20089;-65
2022/08/13 11:04:05;;;;;;;8.00;6.32;;;;;;;31.31;28.17;95910.19;5035920;28;20046;-65
2022/08/13 11:06:32;;;;;;;8.57;6.80;;;;;;;31.48;27.88;95907.97;5035796;28;20410;-63
2022/08/13 11:09:00;;;;;;;10.50;6.72;;;;;;;31.47;27.77;95914.38;5035819;28;20053;-65
2022/08/13 11:11:28;;;;;;;6.50;5.88;;;;;;;31.34;27.68;95907.94;5035776;28;20078;-66
2022/08/13 11:13:56;;;;;;;7.07;6.30;;;;;;;31.35;26.37;95906.91;5035981;28;20089;-65
2022/08/13 11:19:14;;;;;;;6.25;5.72;;;;;;;31.41;27.03;95894.44;5035441;28;20056;-62
2022/08/13 11:21:43;;;;;;;6.90;6.20;;;;;;;31.72;29.11;95893.00;5035647;28;20129;-67
2022/08/13 11:24:11;;;;;;;6.72;6.05;;;;;;;31.87;26.01;95894.63;5035476;28;20396;-62
2022/08/13 11:26:39;;;;;;;9.95;6.03;;;;;;;32.02;26.22;95895.28;5035609;28;20077;-66
2022/08/13 11:29:07;;;;;;;6.43;5.82;;;;;;;32.22;25.95;95880.03;5035535;28;20073;-66
2022/08/13 11:31:36;;;;;;;7.57;6.15;;;;;;;32.60;25.82;95884.72;5035375;28;20389;-65
2022/08/13 11:34:03;;;;;;;9.70;6.28;;;;;;;32.84;24.87;95873.38;5035394;28;20104;-65
2022/08/13 11:36:30;;;;;;;8.60;6.22;;;;;;;33.03;24.71;95872.44;5035198;28;20049;-64
2022/08/13 11:38:58;;;;;;;8.82;5.97;;;;;;;33.34;25.16;95863.69;5035087;28;20046;-67
2022/08/13 11:41:26;;;;;;;8.13;5.80;;;;;;;33.71;24.70;95869.25;5035077;28;20049;-65
2022/08/13 11:43:53;;;;;;;8.18;6.00;;;;;;;33.93;23.36;95862.59;5035049;28;20084;-66
2022/08/13 11:46:22;;;;;;;8.43;6.28;;;;;;;33.76;24.28;95861.31;5035037;28;20140;-67
2022/08/13 11:48:51;;;;;;;11.48;6.22;;;;;;;33.54;24.79;95863.56;5035047;28;20049;-64
2022/08/13 11:51:18;;;;;;;7.18;5.32;;;;;;;32.72;25.03;95846.19;5035094;28;20049;-63
2022/08/13 11:53:45;;;;;;;7.25;5.70;;;;;;;32.63;26.22;95854.53;5035058;28;20056;-66
2022/08/13 11:56:14;;;;;;;7.93;5.47;;;;;;;32.63;25.25;95849.13;5034860;28;20059;-67
2022/08/13 11:58:41;;;;;;;7.93;5.93;;;;;;;32.37;24.55;95850.03;5034970;28;20053;-64
2022/08/13 12:01:09;;;;;;;8.45;5.75;;;;;;;32.06;24.90;95838.09;5034794;28;20053;-66